Nashville, NC

1:25 AM EST on December 29, 2014 (GMT -0500)
Nashville - Birchwood | Change Station
CLOSE
Current Station
Personal Weather Station
Location: Nashville, NC
Elevation: 223 ft
Nearby Weather Stations
Active Advisory: Special Statement

Elev 223 ft 35.96 °N, 77.94 °W | Updated 1 minute ago

Overcast
Overcast
54.9 °F
Feels Like 54.9 °F
N
0.0
Wind Variable Wind from WNW
Gusts 0.0 mph

Today
High -- | Low -- °F
--% Chance of Precip.
Yesterday
High -- | Low -- °F
Precip. -- in
7:21 AM 5:06 PM
First Quarter, 55% visible
Pressure 30.05 in
Visibility 0.2 miles
Clouds Mostly Cloudy 200 ft
Overcast 6500 ft
Dew Point 54 °F
Humidity 97%
Rainfall 0.00 in
Snow Depth Not available.
UV 0 out of 12
Pollen .20 out of 12
Air Quality Not available.
Flu Activity Not available.
METAR KRWI 290553Z AUTO 00000KT 1/4SM FG BKN002 OVC065 12/11 A3005 RMK AO2 SLP174 T01170111 10150 20111 58004

More Conditions Fewer Conditions

Pressure 30.05 in
Visibility 0.2 miles
Clouds Mostly Cloudy 200 ft
Overcast 6500 ft
Dew Point 54 °F
Humidity 97%
Rainfall 0.00 in
Snow Depth Not available.
UV 0 out of 12
Pollen .20 out of 12
Air Quality Not available.
Flu Activity Not available.
METAR KRWI 290553Z AUTO 00000KT 1/4SM FG BKN002 OVC065 12/11 A3005 RMK AO2 SLP174 T01170111 10150 20111 58004

More Conditions Fewer Conditions

10-Day Weather Forecast

Almanac

Astronomy

Dec. 29, 2014 Rise Set
Actual Time
Civil Twilight
Nautical Twilight
Astronomical Twilight
Moon
Length of Visible Light
Length of Day
Tomorrow will be .
, % of the Moon is Illuminated

Today's Extremes

State Highs State Lows

Community

WunderPhotos

Upload Photos

1,781,544 photos uploaded!

WunderBlogs® & News

Nearby

Air Quality

  Air Quality AQ Index Pollutant
Not available.

Snow Depth

Station Depth Elevation

Earthquake Activity

City Distance Mag. Time & Date
Minimum magnitude displayed is 2.5.

Coastal Water Temperatures

Place Temperature

Nearby Weather Stations